Accueil
METAR-TAF:

METAR-TAF

Aéroports :

Aéroport international de Vladivostok

Vladivostok, Russie

latitude: 43-07N, longitude: 131-56E, altitude: 184 m

Observation

Le bulletin a été fait il y a 11 minutes, à 23:30 UTC
Vent 4 kt de ouest/sud-ouest
Température 8°C
Humidité 46%
Pression 1023 hPa
Visibilité: 6000 m

METAR: UHWW 202330Z 25002MPS 6000 NSC 08/M03 Q1023 R25L/0///70 NOSIG RMK QFE766

Heure: 09:41 (23:41 UTC)

Prévision

Le bulletin a été fait il y a 41 minutes, à 23:00 UTC
Prévision valable du 21 à 00 UTC au 21 à 24 UTC
Vent 6 kt de sud/sud-ouest
Visibilité 10 km ou plus
Temporairement
du 21 à 02 UTC au 21 à 09 UTC
Vent 17 kt de sud
Nuages fragmentés à une hauteur de 2500 ft
Evoluant progressivement
du 21 à 10 UTC au 21 à 12 UTC
Vent 6 kt de sud/sud-est
Nuages fragmentés à une hauteur de 1800 ft

TAF: UHWW 202300Z 2100/2124 20003MPS 9999 NSC TEMPO 2102/2109 19009MPS BKN025 BECMG 2110/2112 16003MPS BKN018

Observations et prévisions météorologiques de plus de 4000 aéroports (messages METAR et TAF).

Les stations disponibles sont représentées par des disques jaunes et rouges sur la carte.

Passer la souris dessus pour voir le nom de la station.

Cliquer dessus pour voir les observations et prévisions météorologiques.

Pour changer de carte: cliquez sur les boutons verts avec une croix noire pour zoomer, sur le bouton vert avec un tiret pour effectuer un zoom arrière, ou sur les flèches vertes pour les cartes adjacentes.


METAR-TAF: